Bunch, Oklahoma
Current Conditions -  °F | °C
As of 6:55 PM on Saturday 22 Nov 2014 (Local Time) from KJSV Reporting Station
Broken Clouds Broken Clouds  
Wind Chill: 54°   Ceiling: 6000
Heat Index: 54°   Visibility: 7mi
Dew Point: 52°   Wind: 7mph
Humidity: 94%   Direction: 80°E
Pressure: 29.92"   Gusts: NA
Location:  35.68°N, 94.76°W
Report Text: KJSV 230055Z AUTO 08006KT 7SM SCT005 SCT040 BKN060 12/11 A2992 RMK AO2
Loading
Personal Weather Stations






























Interactive Weather Map New forecast layout! Learn more

10-Day Weather Forecast

Advertisements
Track Severe Weather on mobile